Amoret, Missouri
Current Conditions -  °F | °C
As of 2:53 PM on Friday 19 Dec 2014 (Local Time) from KOJC Reporting Station
Haze Haze  
Wind Chill:   Ceiling: 900
Heat Index:   Visibility: 6mi
Dew Point: -1°   Wind: 0mph
Humidity: 89%   Direction: NA
Pressure: 30.19"   Gusts: NA
Location:  38.26°N, 94.59°W
Report Text: KOJC 192053Z 00000KT 6SM BR OVC009 01/M01 A3019 RMK AO2 SLP234 T00061011 56019
Loading
Personal Weather Stations






























Interactive Weather Map New forecast layout! Learn more

10-Day Weather Forecast

Advertisements
Track Severe Weather on mobile